createdAt,value
2023-03-18T00:02:25.251Z,100.00
2023-03-18T00:04:53.579Z,100.00
2023-03-18T00:07:22.662Z,100.00
2023-03-18T00:09:52.809Z,100.00
2023-03-18T00:12:20.539Z,100.00
2023-03-18T00:14:48.392Z,100.00
2023-03-18T00:17:16.055Z,100.00
2023-03-18T00:19:43.761Z,100.00
2023-03-18T00:22:11.693Z,100.00
2023-03-18T00:24:40.938Z,100.00
2023-03-18T00:27:09.651Z,100.00
2023-03-18T00:29:37.678Z,100.00
2023-03-18T00:32:06.959Z,100.00
2023-03-18T00:34:34.752Z,100.00
2023-03-18T00:37:02.432Z,100.00
2023-03-18T00:39:32.991Z,100.00
2023-03-18T00:42:10.528Z,100.00
2023-03-18T00:44:38.377Z,100.00
2023-03-18T00:47:06.372Z,100.00
2023-03-18T00:49:34.363Z,100.00
2023-03-18T00:52:02.023Z,100.00
2023-03-18T00:54:30.340Z,100.00
2023-03-18T00:56:58.010Z,100.00
2023-03-18T00:59:27.397Z,100.00
2023-03-18T01:01:55.116Z,100.00
2023-03-18T01:04:22.784Z,100.00
2023-03-18T01:06:50.444Z,100.00
2023-03-18T01:09:18.091Z,100.00
2023-03-18T01:11:45.835Z,100.00
2023-03-18T01:14:13.534Z,100.00
2023-03-18T01:16:43.240Z,100.00
2023-03-18T01:19:11.107Z,100.00
2023-03-18T01:21:38.866Z,100.00
2023-03-18T01:24:07.167Z,100.00
2023-03-18T01:26:38.592Z,100.00
2023-03-18T01:29:06.249Z,100.00
2023-03-18T01:31:35.710Z,100.00
2023-03-18T01:34:05.684Z,100.00
2023-03-18T01:36:33.616Z,100.00
2023-03-18T01:39:01.320Z,100.00
2023-03-18T01:41:29.072Z,100.00
2023-03-18T01:43:59.795Z,100.00
2023-03-18T01:46:34.895Z,100.00
2023-03-18T01:49:07.446Z,100.00
2023-03-18T01:51:36.467Z,100.00
2023-03-18T01:54:07.597Z,100.00
2023-03-18T01:56:38.340Z,100.00
2023-03-18T01:59:07.856Z,100.00
2023-03-18T02:01:39.898Z,100.00
2023-03-18T02:04:11.165Z,100.00
2023-03-18T02:06:39.426Z,100.00
2023-03-18T02:09:07.873Z,100.00
2023-03-18T02:11:39.234Z,100.00
2023-03-18T02:14:10.615Z,100.00
2023-03-18T02:16:44.466Z,100.00
2023-03-18T02:19:37.731Z,100.00
2023-03-18T02:22:13.953Z,100.00
2023-03-18T02:24:51.552Z,100.00
2023-03-18T02:27:21.674Z,100.00
2023-03-18T02:29:50.345Z,100.00
2023-03-18T02:32:20.174Z,100.00
2023-03-18T02:34:49.291Z,100.00
2023-03-18T02:37:16.956Z,100.00
2023-03-18T02:39:44.611Z,100.00
2023-03-18T02:42:14.086Z,100.00
2023-03-18T02:44:46.769Z,100.00
2023-03-18T02:47:18.079Z,100.00
2023-03-18T02:49:46.098Z,100.00
2023-03-18T02:52:13.869Z,100.00
2023-03-18T02:54:42.003Z,100.00
2023-03-18T02:57:09.905Z,100.00
2023-03-18T02:59:37.610Z,100.00
2023-03-18T03:02:07.111Z,100.00
2023-03-18T03:04:34.920Z,100.00
2023-03-18T03:07:02.613Z,100.00
2023-03-18T03:09:31.007Z,100.00
2023-03-18T03:11:58.722Z,100.00
2023-03-18T03:14:26.473Z,100.00
2023-03-18T03:16:54.112Z,100.00
2023-03-18T03:19:25.113Z,100.00
2023-03-18T03:21:52.817Z,100.00
2023-03-18T03:24:20.493Z,100.00
2023-03-18T03:26:48.617Z,100.00
2023-03-18T03:29:16.319Z,100.00
2023-03-18T03:31:44.016Z,100.00
2023-03-18T03:34:11.878Z,100.00
2023-03-18T03:36:41.041Z,100.00
2023-03-18T03:39:08.699Z,100.00
2023-03-18T03:41:36.381Z,100.00
2023-03-18T03:44:04.136Z,100.00
2023-03-18T03:46:32.311Z,100.00
2023-03-18T03:48:59.964Z,100.00
2023-03-18T03:51:29.440Z,100.00
2023-03-18T03:53:58.981Z,100.00
2023-03-18T03:56:27.124Z,100.00
2023-03-18T03:58:54.816Z,100.00
2023-03-18T04:01:22.462Z,100.00
2023-03-18T04:03:50.275Z,100.00
2023-03-18T04:06:17.986Z,100.00
2023-03-18T04:08:46.227Z,100.00
2023-03-18T04:11:15.297Z,100.00
2023-03-18T04:13:42.961Z,100.00
2023-03-18T04:16:10.714Z,100.00
2023-03-18T04:18:38.447Z,100.00
2023-03-18T04:21:08.785Z,100.00
2023-03-18T04:23:36.552Z,100.00
2023-03-18T04:26:05.353Z,100.00
2023-03-18T04:28:34.442Z,100.00
2023-03-18T04:31:02.178Z,100.00
2023-03-18T04:33:29.876Z,100.00
2023-03-18T04:35:58.157Z,100.00
2023-03-18T04:38:25.879Z,100.00
2023-03-18T04:40:53.577Z,100.00
2023-03-18T04:43:21.483Z,100.00
2023-03-18T04:45:50.528Z,100.00
2023-03-18T04:48:18.255Z,100.00
2023-03-18T04:50:46.140Z,100.00
2023-03-18T04:53:13.791Z,100.00
2023-03-18T04:55:41.739Z,100.00
2023-03-18T04:58:09.416Z,100.00
2023-03-18T05:00:37.415Z,100.00
2023-03-18T05:03:07.400Z,100.00
2023-03-18T05:05:37.329Z,100.00
2023-03-18T05:08:07.520Z,100.00
2023-03-18T05:10:35.227Z,100.00
2023-03-18T05:13:03.637Z,100.00
2023-03-18T05:15:31.839Z,100.00
2023-03-18T05:18:00.267Z,100.00
2023-03-18T05:20:29.583Z,100.00
2023-03-18T05:22:58.164Z,100.00
2023-03-18T05:25:26.114Z,100.00
2023-03-18T05:27:54.466Z,100.00
2023-03-18T05:30:22.568Z,100.00
2023-03-18T05:32:50.482Z,100.00
2023-03-18T05:35:19.211Z,100.00
2023-03-18T05:37:48.290Z,100.00
2023-03-18T05:40:16.424Z,100.00
2023-03-18T05:42:55.283Z,100.00
2023-03-18T05:45:23.374Z,100.00
2023-03-18T05:47:51.801Z,100.00
2023-03-18T05:50:31.760Z,100.00
2023-03-18T05:53:01.127Z,100.00
2023-03-18T05:55:29.552Z,100.00
2023-03-18T05:57:57.805Z,100.00
2023-03-18T06:00:26.222Z,100.00
2023-03-18T06:02:54.007Z,100.00
2023-03-18T06:05:22.412Z,100.00
2023-03-18T06:07:50.204Z,100.00
2023-03-18T06:10:19.542Z,100.00
2023-03-18T06:12:47.273Z,100.00
2023-03-18T06:15:17.364Z,100.00
2023-03-18T06:17:45.068Z,100.00
2023-03-18T06:20:14.190Z,100.00
2023-03-18T06:22:43.718Z,100.00
2023-03-18T06:25:12.003Z,100.00
2023-03-18T06:27:41.252Z,100.00
2023-03-18T06:30:10.566Z,100.00
2023-03-18T06:32:38.950Z,100.00
2023-03-18T06:35:07.742Z,100.00
2023-03-18T06:37:35.686Z,100.00
2023-03-18T06:40:03.856Z,100.00
2023-03-18T06:42:31.696Z,100.00
2023-03-18T06:45:01.466Z,100.00
2023-03-18T06:47:30.940Z,100.00
2023-03-18T06:49:58.601Z,100.00
2023-03-18T06:52:27.491Z,100.00
2023-03-18T06:54:55.180Z,100.00
2023-03-18T06:57:22.895Z,100.00
2023-03-18T06:59:50.809Z,100.00
2023-03-18T07:02:19.882Z,100.00
2023-03-18T07:04:48.123Z,100.00
2023-03-18T07:07:16.640Z,100.00
2023-03-18T07:09:44.854Z,100.00
2023-03-18T07:12:13.759Z,100.00
2023-03-18T07:14:42.322Z,100.00
2023-03-18T07:17:11.361Z,100.00
2023-03-18T07:19:40.441Z,100.00
2023-03-18T07:22:08.501Z,100.00
2023-03-18T07:24:36.240Z,100.00
2023-03-18T07:27:04.377Z,100.00
2023-03-18T07:29:32.119Z,100.00
2023-03-18T07:31:59.814Z,100.00
2023-03-18T07:34:27.521Z,100.00
2023-03-18T07:36:56.588Z,100.00
2023-03-18T07:39:24.474Z,100.00
2023-03-18T07:41:54.063Z,100.00
2023-03-18T07:44:21.748Z,100.00
2023-03-18T07:46:49.523Z,100.00
2023-03-18T07:49:17.241Z,100.00
2023-03-18T07:51:44.977Z,100.00
2023-03-18T07:54:14.237Z,100.00
2023-03-18T07:56:41.970Z,100.00
2023-03-18T07:59:10.286Z,100.00
2023-03-18T08:01:39.058Z,100.00
2023-03-18T08:04:06.952Z,100.00
2023-03-18T08:06:35.687Z,100.00
2023-03-18T08:09:03.794Z,100.00
2023-03-18T08:11:33.823Z,100.00
2023-03-18T08:14:01.816Z,100.00
2023-03-18T08:16:29.768Z,100.00
2023-03-18T08:18:57.543Z,100.00
2023-03-18T08:21:25.514Z,100.00
2023-03-18T08:23:53.170Z,100.00
2023-03-18T08:26:21.490Z,100.00
2023-03-18T08:28:50.564Z,100.00
2023-03-18T08:31:18.760Z,100.00
2023-03-18T08:33:47.535Z,100.00
2023-03-18T08:36:15.306Z,100.00
2023-03-18T08:38:43.255Z,100.00
2023-03-18T08:41:11.116Z,100.00
2023-03-18T08:43:39.213Z,100.00
2023-03-18T08:46:08.597Z,100.00
2023-03-18T08:48:36.642Z,100.00
2023-03-18T08:51:05.145Z,100.00
2023-03-18T08:53:32.829Z,100.00
2023-03-18T08:56:02.853Z,100.00
2023-03-18T08:58:30.693Z,99.44
2023-03-18T09:00:58.654Z,92.10
2023-03-18T09:03:28.662Z,93.91
2023-03-18T09:05:56.415Z,93.84
2023-03-18T09:08:24.486Z,91.09
2023-03-18T09:10:53.610Z,86.01
2023-03-18T09:13:22.071Z,81.67
2023-03-18T09:15:50.423Z,78.75
2023-03-18T09:18:20.210Z,79.91
2023-03-18T09:20:50.200Z,78.21
2023-03-18T09:23:18.595Z,84.46
2023-03-18T09:25:47.002Z,80.52
2023-03-18T09:28:15.187Z,84.51
2023-03-18T09:30:43.564Z,86.26
2023-03-18T09:33:11.781Z,86.84
2023-03-18T09:35:39.902Z,79.60
2023-03-18T09:38:10.184Z,75.23
2023-03-18T09:40:45.695Z,80.49
2023-03-18T09:43:23.216Z,81.73
2023-03-18T09:46:02.194Z,81.12
2023-03-18T09:48:55.929Z,81.82
2023-03-18T09:51:37.286Z,79.18
2023-03-18T09:54:13.571Z,82.06
2023-03-18T09:56:41.687Z,80.26
2023-03-18T09:59:19.185Z,74.73
2023-03-18T10:01:49.474Z,72.33
2023-03-18T10:04:21.712Z,73.09
2023-03-18T10:06:52.602Z,69.68
2023-03-18T10:09:28.385Z,72.25
2023-03-18T10:12:07.377Z,66.69
2023-03-18T10:14:42.421Z,65.26
2023-03-18T10:17:18.881Z,65.01
2023-03-18T10:19:50.060Z,57.68
2023-03-18T10:22:33.842Z,60.08
2023-03-18T10:25:12.869Z,57.80
2023-03-18T10:27:50.423Z,57.15
2023-03-18T10:30:31.552Z,57.55
2023-03-18T10:33:08.658Z,56.29
2023-03-18T10:35:42.781Z,57.34
2023-03-18T10:38:19.396Z,49.29
2023-03-18T10:40:49.367Z,46.13
2023-03-18T10:43:22.104Z,48.52
2023-03-18T10:45:53.372Z,49.89
2023-03-18T10:48:27.511Z,48.34
2023-03-18T10:51:08.229Z,49.11
2023-03-18T10:53:41.304Z,48.86
2023-03-18T10:56:11.800Z,45.72
2023-03-18T10:58:40.608Z,46.66
2023-03-18T11:01:10.343Z,46.68
2023-03-18T11:03:44.100Z,44.50
2023-03-18T11:06:18.830Z,47.08
2023-03-18T11:08:48.810Z,44.79
2023-03-18T11:11:29.096Z,43.64
2023-03-18T11:13:58.426Z,43.72
2023-03-18T11:16:34.593Z,39.25
2023-03-18T11:19:09.565Z,40.95
2023-03-18T11:21:39.087Z,43.76
2023-03-18T11:24:34.526Z,42.11
2023-03-18T11:27:04.324Z,41.21
2023-03-18T11:29:34.602Z,38.65
2023-03-18T11:32:03.306Z,39.62
2023-03-18T11:34:32.872Z,42.40
2023-03-18T11:37:04.378Z,38.36
2023-03-18T11:39:36.670Z,39.29
2023-03-18T11:42:18.812Z,38.67
2023-03-18T11:44:46.598Z,40.37
2023-03-18T11:47:19.099Z,38.44
2023-03-18T11:49:46.755Z,39.11
2023-03-18T11:52:32.903Z,39.17
2023-03-18T11:55:23.471Z,38.49
2023-03-18T11:58:17.909Z,38.95
2023-03-18T12:00:55.295Z,39.64
2023-03-18T12:03:41.919Z,39.86
2023-03-18T12:06:20.222Z,42.77
2023-03-18T12:08:56.979Z,38.64
2023-03-18T12:11:35.968Z,39.04
2023-03-18T12:14:13.789Z,38.34
2023-03-18T12:16:52.383Z,39.32
2023-03-18T12:19:34.273Z,39.57
2023-03-18T12:22:24.602Z,38.06
2023-03-18T12:25:08.520Z,37.90
2023-03-18T12:27:45.114Z,38.28
2023-03-18T12:30:25.069Z,38.56
2023-03-18T12:33:04.031Z,40.76
2023-03-18T12:35:45.269Z,38.53
2023-03-18T12:38:39.448Z,37.27
2023-03-18T12:41:10.896Z,39.54
2023-03-18T12:43:52.598Z,39.47
2023-03-18T12:46:28.775Z,40.60
2023-03-18T12:49:03.751Z,38.66
2023-03-18T12:51:45.199Z,40.44
2023-03-18T12:54:22.146Z,40.35
2023-03-18T12:56:53.620Z,39.99
2023-03-18T12:59:29.200Z,42.19
2023-03-18T13:02:20.614Z,41.88
2023-03-18T13:04:55.435Z,40.02
2023-03-18T13:07:29.912Z,41.64
2023-03-18T13:10:04.191Z,42.30
2023-03-18T13:12:36.931Z,42.24
2023-03-18T13:15:13.979Z,41.83
2023-03-18T13:17:44.896Z,43.27
2023-03-18T13:20:16.114Z,44.88
2023-03-18T13:23:10.784Z,42.56
2023-03-18T13:25:46.090Z,43.67
2023-03-18T13:28:34.137Z,42.82
2023-03-18T13:31:11.734Z,44.57
2023-03-18T13:34:11.943Z,43.03
2023-03-18T13:37:03.806Z,44.34
2023-03-18T13:40:09.964Z,43.68
2023-03-18T13:42:39.706Z,44.57
2023-03-18T13:45:15.617Z,42.67
2023-03-18T13:47:44.360Z,44.95
2023-03-18T13:50:32.243Z,45.41
2023-03-18T13:53:02.963Z,43.52
2023-03-18T13:55:35.936Z,43.64
2023-03-18T13:58:19.709Z,42.45
2023-03-18T14:01:28.374Z,41.76
2023-03-18T14:04:00.657Z,40.77
2023-03-18T14:06:47.556Z,38.87
2023-03-18T14:09:33.813Z,33.53
2023-03-18T14:12:39.761Z,30.31
2023-03-18T14:15:45.573Z,28.63
2023-03-18T14:18:37.089Z,32.61
2023-03-18T14:21:08.738Z,35.79
2023-03-18T14:23:43.652Z,35.67
2023-03-18T14:26:24.194Z,35.30
2023-03-18T14:28:57.651Z,36.50
2023-03-18T14:31:50.321Z,38.01
2023-03-18T14:34:30.586Z,36.30
2023-03-18T14:37:21.454Z,36.38
2023-03-18T14:39:52.980Z,37.95
2023-03-18T14:42:41.973Z,39.70
2023-03-18T14:45:19.302Z,39.22
2023-03-18T14:47:50.611Z,39.85
2023-03-18T14:50:25.570Z,40.09
2023-03-18T14:52:56.650Z,42.13
2023-03-18T14:55:31.584Z,44.05
2023-03-18T14:58:01.146Z,44.80
2023-03-18T15:00:33.465Z,44.17
2023-03-18T15:03:03.390Z,46.71
2023-03-18T15:05:35.795Z,48.64
2023-03-18T15:08:08.901Z,47.34
2023-03-18T15:10:37.499Z,48.39
2023-03-18T15:13:08.575Z,46.54
2023-03-18T15:15:36.784Z,47.45
2023-03-18T15:18:18.508Z,45.78
2023-03-18T15:20:49.322Z,46.41
2023-03-18T15:23:19.500Z,46.85
2023-03-18T15:25:50.397Z,47.91
2023-03-18T15:28:23.700Z,47.68
2023-03-18T15:30:54.306Z,48.14
2023-03-18T15:33:24.296Z,49.34
2023-03-18T15:35:56.129Z,49.29
2023-03-18T15:38:29.001Z,48.78
2023-03-18T15:41:01.436Z,49.45
2023-03-18T15:43:40.155Z,50.03
2023-03-18T15:46:15.808Z,52.10
2023-03-18T15:48:47.786Z,53.38
2023-03-18T15:51:26.771Z,54.95
2023-03-18T15:53:58.687Z,56.88
2023-03-18T15:56:29.654Z,57.44
2023-03-18T15:59:08.850Z,58.45
2023-03-18T16:01:37.202Z,60.69
2023-03-18T16:04:10.136Z,60.79
2023-03-18T16:06:38.561Z,63.58
2023-03-18T16:09:15.712Z,63.95
2023-03-18T16:11:45.112Z,65.71
2023-03-18T16:14:17.352Z,67.57
2023-03-18T16:16:45.324Z,66.62
2023-03-18T16:19:22.870Z,69.76
2023-03-18T16:21:50.919Z,69.08
2023-03-18T16:24:18.686Z,68.97
2023-03-18T16:26:47.060Z,71.75
2023-03-18T16:29:18.692Z,73.24
2023-03-18T16:31:47.222Z,74.95
2023-03-18T16:34:21.666Z,75.66
2023-03-18T16:36:51.213Z,76.54
2023-03-18T16:39:21.033Z,78.60
2023-03-18T16:41:49.594Z,80.26
2023-03-18T16:44:21.161Z,81.26
2023-03-18T16:46:53.872Z,79.47
2023-03-18T16:49:24.930Z,82.87
2023-03-18T16:51:53.575Z,82.57
2023-03-18T16:54:23.787Z,84.86
2023-03-18T16:56:54.789Z,89.24
2023-03-18T16:59:24.850Z,88.71
2023-03-18T17:01:54.133Z,89.21
2023-03-18T17:04:26.021Z,94.47
2023-03-18T17:06:54.046Z,96.69
2023-03-18T17:09:23.091Z,98.98
2023-03-18T17:11:53.050Z,100.00
2023-03-18T17:14:34.383Z,100.00
2023-03-18T17:17:06.646Z,100.00
2023-03-18T17:19:35.194Z,100.00
2023-03-18T17:22:03.166Z,100.00
2023-03-18T17:24:30.913Z,100.00
2023-03-18T17:27:01.588Z,100.00
2023-03-18T17:29:32.539Z,100.00
2023-03-18T17:32:01.421Z,100.00
2023-03-18T17:34:29.194Z,100.00
2023-03-18T17:36:59.549Z,100.00
2023-03-18T17:39:27.270Z,100.00
2023-03-18T17:41:55.001Z,100.00
2023-03-18T17:44:29.897Z,100.00
2023-03-18T17:46:59.324Z,100.00
2023-03-18T17:49:28.525Z,100.00
2023-03-18T17:51:57.308Z,100.00
2023-03-18T17:54:27.279Z,100.00
2023-03-18T17:56:56.122Z,100.00
2023-03-18T17:59:23.929Z,100.00
2023-03-18T18:01:52.581Z,100.00
2023-03-18T18:04:24.717Z,100.00
2023-03-18T18:06:54.150Z,100.00
2023-03-18T18:09:22.118Z,100.00
2023-03-18T18:11:51.015Z,100.00
2023-03-18T18:14:21.804Z,100.00
2023-03-18T18:16:50.146Z,100.00
2023-03-18T18:19:19.448Z,100.00
2023-03-18T18:21:50.430Z,100.00
2023-03-18T18:24:24.219Z,100.00
2023-03-18T18:26:52.477Z,100.00
2023-03-18T18:29:21.654Z,100.00
2023-03-18T18:31:49.797Z,100.00
2023-03-18T18:34:18.179Z,100.00
2023-03-18T18:36:45.916Z,100.00
2023-03-18T18:39:15.250Z,100.00
2023-03-18T18:41:45.055Z,100.00
2023-03-18T18:44:13.010Z,100.00
2023-03-18T18:46:40.929Z,100.00
2023-03-18T18:49:18.392Z,100.00
2023-03-18T18:51:46.672Z,100.00
2023-03-18T18:54:16.075Z,100.00
2023-03-18T18:56:44.486Z,100.00
2023-03-18T18:59:24.722Z,100.00
2023-03-18T19:01:52.735Z,100.00
2023-03-18T19:04:21.794Z,100.00
2023-03-18T19:06:50.835Z,100.00
2023-03-18T19:09:21.868Z,100.00
2023-03-18T19:11:50.152Z,100.00
2023-03-18T19:14:20.524Z,100.00
2023-03-18T19:16:49.374Z,100.00
2023-03-18T19:19:19.455Z,100.00
2023-03-18T19:21:47.265Z,100.00
2023-03-18T19:24:36.706Z,100.00
2023-03-18T19:27:07.062Z,100.00
2023-03-18T19:29:34.966Z,100.00
2023-03-18T19:32:02.967Z,100.00
2023-03-18T19:34:32.108Z,100.00
2023-03-18T19:37:02.559Z,100.00
2023-03-18T19:39:30.263Z,100.00
2023-03-18T19:41:59.393Z,100.00
2023-03-18T19:44:27.857Z,100.00
2023-03-18T19:46:58.546Z,100.00
2023-03-18T19:49:28.416Z,100.00
2023-03-18T19:51:56.362Z,100.00
2023-03-18T19:54:28.670Z,100.00
2023-03-18T19:56:57.337Z,100.00
2023-03-18T19:59:33.492Z,100.00
2023-03-18T20:02:05.245Z,100.00
2023-03-18T20:04:33.151Z,100.00
2023-03-18T20:07:01.518Z,100.00
2023-03-18T20:09:29.743Z,100.00
2023-03-18T20:12:04.673Z,100.00
2023-03-18T20:14:37.938Z,100.00
2023-03-18T20:17:28.276Z,100.00
2023-03-18T20:19:56.025Z,100.00
2023-03-18T20:22:26.051Z,100.00
2023-03-18T20:24:54.283Z,100.00
2023-03-18T20:27:22.164Z,100.00
2023-03-18T20:29:51.404Z,100.00
2023-03-18T20:32:19.162Z,100.00
2023-03-18T20:34:47.110Z,100.00
2023-03-18T20:37:22.857Z,100.00
2023-03-18T20:39:51.680Z,100.00
2023-03-18T20:42:19.612Z,100.00
2023-03-18T20:44:47.332Z,100.00
2023-03-18T20:47:16.360Z,100.00
2023-03-18T20:49:45.726Z,100.00
2023-03-18T20:52:25.847Z,100.00
2023-03-18T20:54:53.842Z,100.00
2023-03-18T20:57:21.621Z,100.00
2023-03-18T20:59:49.696Z,100.00
2023-03-18T21:02:31.007Z,100.00
2023-03-18T21:04:59.999Z,100.00
2023-03-18T21:07:28.630Z,100.00
2023-03-18T21:09:56.407Z,100.00
2023-03-18T21:12:25.239Z,100.00
2023-03-18T21:14:53.282Z,100.00
2023-03-18T21:17:23.566Z,100.00
2023-03-18T21:19:54.252Z,100.00
2023-03-18T21:22:24.520Z,100.00
2023-03-18T21:24:52.301Z,100.00
2023-03-18T21:27:21.206Z,100.00
2023-03-18T21:29:49.912Z,100.00
2023-03-18T21:32:24.376Z,100.00
2023-03-18T21:34:54.594Z,100.00
2023-03-18T21:37:24.787Z,100.00
2023-03-18T21:39:53.126Z,100.00
2023-03-18T21:42:24.802Z,100.00
2023-03-18T21:44:53.435Z,100.00
2023-03-18T21:47:22.857Z,100.00
2023-03-18T21:49:51.511Z,100.00
2023-03-18T21:52:28.365Z,100.00
2023-03-18T21:54:59.938Z,100.00
2023-03-18T21:57:27.920Z,100.00
2023-03-18T21:59:55.813Z,100.00
2023-03-18T22:02:31.489Z,100.00
2023-03-18T22:05:01.227Z,100.00
2023-03-18T22:07:32.310Z,100.00
2023-03-18T22:10:00.680Z,100.00
2023-03-18T22:12:31.129Z,100.00
2023-03-18T22:14:59.337Z,100.00
2023-03-18T22:17:28.775Z,100.00
2023-03-18T22:19:58.214Z,100.00
2023-03-18T22:22:28.221Z,100.00
2023-03-18T22:24:57.257Z,100.00
2023-03-18T22:27:26.995Z,100.00
2023-03-18T22:29:56.656Z,100.00
2023-03-18T22:32:34.708Z,100.00
2023-03-18T22:35:02.721Z,100.00
2023-03-18T22:37:30.487Z,100.00
2023-03-18T22:40:01.018Z,100.00
2023-03-18T22:42:29.192Z,100.00
2023-03-18T22:44:57.190Z,100.00
2023-03-18T22:47:27.036Z,100.00
2023-03-18T22:49:54.825Z,100.00
2023-03-18T22:52:25.396Z,100.00
2023-03-18T23:00:05.106Z,100.00
2023-03-18T23:02:32.802Z,100.00
2023-03-18T23:05:00.498Z,100.00
2023-03-18T23:07:31.064Z,100.00
2023-03-18T23:10:00.635Z,100.00
2023-03-18T23:12:30.183Z,100.00
2023-03-18T23:14:58.069Z,100.00
2023-03-18T23:17:28.931Z,100.00
2023-03-18T23:19:57.049Z,100.00
2023-03-18T23:22:27.386Z,100.00
2023-03-18T23:24:55.616Z,100.00
2023-03-18T23:27:24.459Z,100.00
2023-03-18T23:29:52.229Z,100.00
2023-03-18T23:32:20.902Z,100.00
2023-03-18T23:34:50.956Z,100.00
2023-03-18T23:37:19.022Z,100.00
2023-03-18T23:39:47.099Z,100.00
2023-03-18T23:42:15.141Z,100.00
2023-03-18T23:44:45.198Z,100.00
2023-03-18T23:47:14.723Z,100.00
2023-03-18T23:49:42.388Z,100.00
2023-03-18T23:52:13.730Z,100.00
2023-03-18T23:54:43.354Z,100.00
2023-03-18T23:57:12.049Z,100.00
2023-03-18T23:59:40.088Z,100.00
